createdAt,value
2023-04-14T00:01:37.733Z,3.90
2023-04-14T00:04:04.641Z,4.00
2023-04-14T00:06:31.482Z,3.90
2023-04-14T00:08:58.526Z,3.90
2023-04-14T00:11:25.479Z,3.90
2023-04-14T00:13:52.153Z,3.90
2023-04-14T00:16:19.140Z,3.90
2023-04-14T00:18:45.806Z,3.90
2023-04-14T00:21:13.258Z,3.90
2023-04-14T03:01:09.784Z,3.80
2023-04-14T03:03:37.676Z,3.60
2023-04-14T03:06:08.358Z,3.50
2023-04-14T03:08:37.263Z,3.50
2023-04-14T03:11:05.939Z,3.50
2023-04-14T03:13:33.869Z,3.50
2023-04-14T03:16:01.439Z,3.50
2023-04-14T03:18:29.535Z,3.60
2023-04-14T03:20:57.397Z,3.50
2023-04-14T03:23:26.040Z,3.50
2023-04-14T03:25:53.430Z,3.50
2023-04-14T03:28:23.529Z,3.50
2023-04-14T03:30:53.951Z,3.60
2023-04-14T03:33:27.375Z,3.60
2023-04-14T03:35:56.473Z,3.70
2023-04-14T03:38:27.640Z,3.70
2023-04-14T03:40:59.706Z,3.70
2023-04-14T03:43:28.471Z,3.70
2023-04-14T03:45:55.160Z,3.70
2023-04-14T03:48:26.124Z,3.80
2023-04-14T03:50:54.545Z,3.70
2023-04-14T03:53:21.740Z,3.70
2023-04-14T03:55:51.405Z,3.70
2023-04-14T03:58:19.982Z,3.60
2023-04-14T04:00:47.594Z,3.60
2023-04-14T04:03:15.671Z,3.70
2023-04-14T04:05:44.154Z,3.70
2023-04-14T04:08:12.632Z,3.70
2023-04-14T04:10:39.580Z,3.70
2023-04-14T04:13:10.397Z,3.70
2023-04-14T04:15:39.234Z,3.80
2023-04-14T04:18:08.623Z,3.80
2023-04-14T04:20:40.259Z,3.80
2023-04-14T04:23:08.390Z,3.90
2023-04-14T04:25:39.488Z,3.90
2023-04-14T04:28:06.823Z,3.90
2023-04-14T04:30:35.720Z,4.00
2023-04-14T04:33:03.798Z,4.10
2023-04-14T04:35:32.559Z,4.00
2023-04-14T04:38:00.942Z,4.00
2023-04-14T09:54:26.784Z,4.00
2023-04-14T09:56:54.295Z,6.20
2023-04-14T09:59:34.832Z,6.10
2023-04-14T10:02:06.011Z,6.10
2023-04-14T10:04:33.426Z,6.10
2023-04-14T10:07:00.517Z,6.00
2023-04-14T10:26:54.140Z,6.00
2023-04-14T10:49:30.137Z,6.90
2023-04-14T10:52:16.636Z,7.30
2023-04-14T10:54:53.186Z,7.20
2023-04-14T10:57:24.126Z,7.40
2023-04-14T10:59:55.110Z,7.40
2023-04-14T11:07:29.949Z,7.50
2023-04-14T11:10:21.129Z,7.80
2023-04-14T11:12:54.044Z,7.80
2023-04-14T11:15:20.788Z,8.20
2023-04-14T11:17:48.067Z,8.30
2023-04-14T11:20:20.823Z,8.30
2023-04-14T11:22:49.610Z,8.30
2023-04-14T11:35:16.370Z,8.40
2023-04-14T11:37:43.814Z,9.30
2023-04-14T11:40:12.231Z,9.20
2023-04-14T11:42:43.531Z,9.00
2023-04-14T11:45:10.740Z,8.90
2023-04-14T11:47:37.416Z,9.00
2023-04-14T11:50:05.637Z,9.20
2023-04-14T11:52:35.009Z,9.30
2023-04-14T11:55:02.497Z,9.20
2023-04-14T11:57:29.599Z,9.30
2023-04-14T11:59:57.011Z,9.20
2023-04-14T12:02:23.827Z,9.00
2023-04-14T12:04:51.768Z,9.00
2023-04-14T12:07:20.047Z,9.00
2023-04-14T12:09:49.425Z,8.60
2023-04-14T13:22:08.564Z,8.30
2023-04-14T13:24:36.132Z,6.50
2023-04-14T13:27:03.075Z,6.60
2023-04-14T13:29:32.718Z,6.70
2023-04-14T13:31:59.833Z,6.90
2023-04-14T13:34:29.593Z,7.10
2023-04-14T13:36:56.396Z,7.30
2023-04-14T13:39:23.057Z,7.40
2023-04-14T13:41:49.714Z,7.40
2023-04-14T13:44:16.355Z,7.50
2023-04-14T14:41:04.427Z,11.30
2023-04-14T15:20:19.571Z,12.20
2023-04-14T15:22:46.235Z,11.50
2023-04-14T15:25:13.096Z,10.90
2023-04-14T15:27:40.003Z,11.20
2023-04-14T15:30:07.505Z,11.30
2023-04-14T15:32:34.367Z,11.50
2023-04-14T15:35:01.185Z,11.50
2023-04-14T15:37:28.090Z,11.80
2023-04-14T15:39:55.349Z,11.50
2023-04-14T15:42:21.955Z,11.10
2023-04-14T15:44:50.986Z,10.80
2023-04-14T15:47:18.263Z,10.70
2023-04-14T15:49:46.618Z,10.80
2023-04-14T15:52:16.746Z,10.80
2023-04-14T15:54:43.397Z,10.70
2023-04-14T15:57:10.412Z,10.50
2023-04-14T15:59:37.460Z,10.40
2023-04-14T16:04:32.018Z,10.30
2023-04-14T16:06:59.003Z,9.90
2023-04-14T16:09:25.774Z,9.70
2023-04-14T16:34:00.311Z,9.40
2023-04-14T16:36:27.200Z,8.30
2023-04-14T16:38:54.285Z,8.60
2023-04-14T16:41:21.180Z,8.60
2023-04-14T16:43:47.854Z,8.60
2023-04-14T16:46:14.503Z,8.40
2023-04-14T16:48:41.289Z,8.50
2023-04-14T16:51:09.179Z,8.30
2023-04-14T16:53:39.925Z,8.30
2023-04-14T16:56:08.437Z,8.30
2023-04-14T16:58:37.651Z,8.20
2023-04-14T17:01:06.442Z,7.80
2023-04-14T17:03:33.795Z,8.00
2023-04-14T17:06:00.687Z,8.10
2023-04-14T17:23:27.612Z,7.70
2023-04-14T17:50:29.305Z,7.30
2023-04-14T17:52:57.407Z,6.70
2023-04-14T17:55:24.103Z,6.70
2023-04-14T17:57:51.475Z,6.80
2023-04-14T18:00:18.829Z,6.70
2023-04-14T18:02:45.633Z,6.70
2023-04-14T18:05:13.110Z,6.80
2023-04-14T18:07:41.353Z,6.90
2023-04-14T18:10:08.462Z,6.80
2023-04-14T18:12:35.201Z,6.90
2023-04-14T18:15:01.890Z,6.80
2023-04-14T18:17:29.082Z,6.70
2023-04-14T18:19:58.615Z,6.60
2023-04-14T18:22:26.406Z,6.40
2023-04-14T18:24:53.710Z,6.30
2023-04-14T18:29:51.177Z,6.40
2023-04-14T18:32:18.065Z,6.20
2023-04-14T18:34:44.823Z,6.10
2023-04-14T18:37:11.595Z,6.30
2023-04-14T18:39:38.314Z,6.20
2023-04-14T18:42:05.236Z,6.30
2023-04-14T18:44:32.487Z,6.30
2023-04-14T18:46:59.569Z,6.20
2023-04-14T18:49:26.308Z,6.00
2023-04-14T18:51:53.393Z,6.00
2023-04-14T18:54:21.229Z,6.10
2023-04-14T18:56:48.289Z,6.00
2023-04-14T18:59:15.065Z,6.10
2023-04-14T19:01:41.744Z,6.10
2023-04-14T19:04:08.557Z,6.00
2023-04-14T19:06:35.284Z,6.00
2023-04-14T19:09:04.130Z,6.00
2023-04-14T19:11:35.700Z,6.00
2023-04-14T19:14:04.642Z,6.00
2023-04-14T19:16:31.855Z,6.00
2023-04-14T19:18:59.875Z,6.10
2023-04-14T19:21:26.885Z,6.10
2023-04-14T19:23:54.594Z,6.20
2023-04-14T19:26:21.304Z,6.10
2023-04-14T19:28:48.066Z,6.10
2023-04-14T19:31:15.634Z,6.10
2023-04-14T19:33:42.262Z,6.20
2023-04-14T19:36:18.304Z,6.20
2023-04-14T19:38:45.033Z,6.10
2023-04-14T19:41:12.008Z,6.10
2023-04-14T19:43:38.734Z,6.20
2023-04-14T19:46:05.695Z,6.20
2023-04-14T19:48:33.097Z,6.20
2023-04-14T19:51:01.794Z,6.10
2023-04-14T19:53:28.939Z,6.10
2023-04-14T23:08:50.751Z,6.00
2023-04-14T23:11:20.677Z,5.30
2023-04-14T23:13:48.839Z,5.20
